^^
Paulen-Weather Station Historical Data
Daily Summary for October 01, 2022 Units:  English    Metric   Both
Daily Weekly Monthly Yearly Custom
  High: Low: Average:
Temperature: 55.4 °F 53.6 °F 55 °F
Dew Point: 53.6 °F 51.8 °F 53.4 °F
Humidity: 97% 89% 94%
Wind Speed: 37.9mph 19.9mph 27.2mph
Wind Gust: 31.7mph - -
Wind- - SSE
Pressure: 29.5 in 29.3 in -
Precipitation: 0.28 in    
Historical Graphs
 
 
Tabular Data for October 01, 2022
Time Temperature Dew Point Pressure Wind Wind Speed Wind Gust Humidity Rainfall Rate (Hourly) solar
00:04 55.4 °F 51.8 °F 29.5 in SSE 19.9 mph 18 mph 90% 0 in 0 W/m2
00:09 55.4 °F 51.8 °F 29.5 in SSE 22.4 mph 19.9 mph 90% 0 in 0 W/m2
00:14 55.4 °F 51.8 °F 29.5 in SSE 25.5 mph 23 mph 90% 0 in 0 W/m2
00:19 55.4 °F 53.6 °F 29.5 in SSE 21.1 mph 20.5 mph 90% 0 in 0 W/m2
00:24 55.4 °F 53.6 °F 29.5 in SSE 21.7 mph 19.9 mph 91% 0 in 0 W/m2
00:29 55.4 °F 53.6 °F 29.5 in SSE 23.6 mph 19.3 mph 91% 0 in 0 W/m2
00:34 55.4 °F 53.6 °F 29.5 in SSE 23 mph 21.1 mph 91% 0 in 0 W/m2
00:39 55.4 °F 53.6 °F 29.5 in SSE 23.6 mph 21.7 mph 90% 0 in 0 W/m2
00:44 55.4 °F 53.6 °F 29.5 in SSE 24.9 mph 21.1 mph 91% 0 in 0 W/m2
00:49 55.4 °F 53.6 °F 29.5 in SSE 26.1 mph 22.4 mph 91% 0 in 0 W/m2
00:54 55.4 °F 53.6 °F 29.5 in SSE 24.9 mph 20.5 mph 91% 0 in 0 W/m2
00:59 55.4 °F 51.8 °F 29.5 in SSE 29.2 mph 23.6 mph 89% 0 in 0 W/m2
01:04 55.4 °F 51.8 °F 29.5 in SSE 29.2 mph 24.9 mph 89% 0.01 in 0 W/m2
01:09 55.4 °F 51.8 °F 29.5 in SSE 26.1 mph 25.5 mph 89% 0.01 in 0 W/m2
01:14 55.4 °F 51.8 °F 29.5 in SSE 27.3 mph 24.2 mph 90% 0.01 in 0 W/m2
01:19 55.4 °F 51.8 °F 29.5 in SSE 25.5 mph 24.2 mph 89% 0.01 in 0 W/m2
01:24 55.4 °F 51.8 °F 29.5 in SSE 24.9 mph 22.4 mph 89% 0.01 in 0 W/m2
01:29 55.4 °F 53.6 °F 29.5 in SSE 29.2 mph 23.6 mph 90% 0.01 in 0 W/m2
01:34 55.4 °F 53.6 °F 29.5 in SSE 25.5 mph 26.7 mph 91% 0.01 in 0 W/m2
01:39 55.4 °F 53.6 °F 29.5 in SSE 25.5 mph 22.4 mph 91% 0.01 in 0 W/m2
01:44 55.4 °F 53.6 °F 29.5 in SSE 24.9 mph 22.4 mph 91% 0.01 in 0 W/m2
01:49 55.4 °F 53.6 °F 29.4 in SSE 26.7 mph 23.6 mph 92% 0.01 in 0 W/m2
01:54 55.4 °F 53.6 °F 29.4 in SSE 27.3 mph 23 mph 91% 0.01 in 0 W/m2
01:59 55.4 °F 53.6 °F 29.4 in SSE 26.7 mph 23.6 mph 91% 0.01 in 0 W/m2
02:04 55.4 °F 53.6 °F 29.4 in SSE 26.1 mph 22.4 mph 91% 0.01 in 0 W/m2
02:09 55.4 °F 53.6 °F 29.4 in SSE 26.1 mph 21.7 mph 91% 0 in 0 W/m2
02:14 55.4 °F 53.6 °F 29.4 in SSE 26.7 mph 24.2 mph 91% 0 in 0 W/m2
02:19 55.4 °F 53.6 °F 29.4 in SSE 28 mph 24.2 mph 91% 0 in 0 W/m2
02:24 55.4 °F 53.6 °F 29.4 in SSE 27.3 mph 23.6 mph 91% 0 in 0 W/m2
02:29 55.4 °F 53.6 °F 29.4 in SSE 26.7 mph 23.6 mph 92% 0 in 0 W/m2
02:34 55.4 °F 53.6 °F 29.4 in SSE 25.5 mph 23.6 mph 93% 0 in 0 W/m2
02:39 55.4 °F 53.6 °F 29.4 in SSE 23 mph 18.6 mph 93% 0 in 0 W/m2
02:44 55.4 °F 53.6 °F 29.4 in SSE 23.6 mph 22.4 mph 94% 0 in 0 W/m2
02:49 55.4 °F 53.6 °F 29.4 in SSE 23 mph 19.3 mph 94% 0 in 0 W/m2
02:54 55.4 °F 53.6 °F 29.4 in SSE 24.9 mph 21.7 mph 94% 0.01 in 0 W/m2
02:59 55.4 °F 53.6 °F 29.4 in SSE 22.4 mph 19.3 mph 94% 0.01 in 0 W/m2
03:04 55.4 °F 53.6 °F 29.4 in SSE 26.7 mph 24.2 mph 94% 0.01 in 0 W/m2
03:09 55.4 °F 53.6 °F 29.4 in SSE 28 mph 25.5 mph 94% 0.01 in 0 W/m2
03:14 55.4 °F 53.6 °F 29.4 in SSE 28 mph 24.9 mph 94% 0.02 in 0 W/m2
03:19 55.4 °F 53.6 °F 29.4 in SSE 26.1 mph 21.1 mph 95% 0.02 in 0 W/m2
03:24 55.4 °F 53.6 °F 29.4 in SSE 26.1 mph 22.4 mph 95% 0.03 in 0 W/m2
03:29 55.4 °F 53.6 °F 29.4 in SSE 24.2 mph 25.5 mph 95% 0.04 in 0 W/m2
03:34 55.4 °F 53.6 °F 29.4 in SSE 28.6 mph 26.1 mph 95% 0.06 in 0 W/m2
03:39 55.4 °F 53.6 °F 29.4 in SSE 26.1 mph 23.6 mph 95% 0.06 in 0 W/m2
03:44 55.4 °F 53.6 °F 29.4 in SSE 31.1 mph 28.6 mph 95% 0.06 in 0 W/m2
03:49 55.4 °F 53.6 °F 29.4 in SSE 28.6 mph 24.9 mph 95% 0.06 in 0 W/m2
03:54 55.4 °F 53.6 °F 29.4 in SSE 26.1 mph 22.4 mph 95% 0.06 in 0 W/m2
03:59 55.4 °F 53.6 °F 29.4 in SSE 28 mph 23.6 mph 95% 0.06 in 0 W/m2
04:04 55.4 °F 53.6 °F 29.4 in SSE 29.2 mph 25.5 mph 95% 0.06 in 0 W/m2
04:09 55.4 °F 53.6 °F 29.4 in SSE 26.1 mph 22.4 mph 95% 0.06 in 0 W/m2
04:14 55.4 °F 53.6 °F 29.4 in SSE 25.5 mph 22.4 mph 95% 0.06 in 0 W/m2
04:19 55.4 °F 53.6 °F 29.4 in SSE 25.5 mph 24.2 mph 95% 0.05 in 0 W/m2
04:24 55.4 °F 53.6 °F 29.4 in SSE 25.5 mph 21.7 mph 95% 0.06 in 0 W/m2
04:29 55.4 °F 53.6 °F 29.4 in SSE 26.7 mph 23 mph 95% 0.05 in 0 W/m2
04:34 55.4 °F 53.6 °F 29.4 in SSE 27.3 mph 23 mph 95% 0.04 in 0 W/m2
04:39 55.4 °F 53.6 °F 29.4 in SSE 28 mph 24.9 mph 95% 0.03 in 0 W/m2
04:44 55.4 °F 53.6 °F 29.4 in SSE 24.9 mph 21.7 mph 95% 0.03 in 0 W/m2
04:49 55.4 °F 53.6 °F 29.4 in SSE 26.1 mph 23.6 mph 95% 0.02 in 0 W/m2
04:54 55.4 °F 53.6 °F 29.4 in SSE 26.7 mph 23.6 mph 95% 0.02 in 0 W/m2
04:59 55.4 °F 53.6 °F 29.4 in SSE 26.7 mph 24.2 mph 95% 0.02 in 0 W/m2
05:04 55.4 °F 53.6 °F 29.4 in SSE 29.8 mph 24.9 mph 95% 0.02 in 0 W/m2
05:09 55.4 °F 53.6 °F 29.4 in SSE 28.6 mph 23.6 mph 95% 0.02 in 0 W/m2
05:14 55.4 °F 53.6 °F 29.4 in SSE 26.7 mph 24.9 mph 95% 0.02 in 0 W/m2
05:19 55.4 °F 53.6 °F 29.4 in SSE 27.3 mph 25.5 mph 95% 0.03 in 0 W/m2
05:24 55.4 °F 53.6 °F 29.4 in SSE 28.6 mph 25.5 mph 95% 0.02 in 0 W/m2
05:29 55.4 °F 53.6 °F 29.4 in SSE 31.1 mph 25.5 mph 95% 0.02 in 0 W/m2
05:34 53.6 °F 53.6 °F 29.4 in SSE 29.8 mph 26.7 mph 95% 0.02 in 0 W/m2
05:39 53.6 °F 53.6 °F 29.4 in SSE 26.1 mph 23.6 mph 96% 0.04 in 0 W/m2
05:44 53.6 °F 53.6 °F 29.3 in SSE 31.7 mph 25.5 mph 96% 0.06 in 0 W/m2
05:49 53.6 °F 53.6 °F 29.3 in SSE 32.3 mph 26.7 mph 96% 0.06 in 0 W/m2
05:54 55.4 °F 53.6 °F 29.3 in SSE 32.9 mph 30.4 mph 95% 0.06 in 0 W/m2
05:59 55.4 °F 53.6 °F 29.3 in SSE 32.9 mph 29.2 mph 95% 0.06 in 0 W/m2
06:04 53.6 °F 53.6 °F 29.3 in SSE 34.8 mph 30.4 mph 95% 0.06 in 0 W/m2
06:09 55.4 °F 53.6 °F 29.3 in SSE 33.6 mph 29.2 mph 96% 0.06 in 0 W/m2
06:14 53.6 °F 53.6 °F 29.3 in SSE 37.9 mph 31.7 mph 95% 0.06 in 0 W/m2
06:19 53.6 °F 53.6 °F 29.3 in SSE 29.8 mph 26.7 mph 96% 0.07 in 0 W/m2
06:24 53.6 °F 53.6 °F 29.3 in SSE 27.3 mph 24.9 mph 96% 0.07 in 0 W/m2
06:29 53.6 °F 53.6 °F 29.3 in SSE 28.6 mph 24.2 mph 96% 0.08 in 0 W/m2
06:34 53.6 °F 53.6 °F 29.3 in SSE 26.7 mph 26.1 mph 96% 0.08 in 0 W/m2
06:39 55.4 °F 53.6 °F 29.3 in SSE 32.9 mph 29.2 mph 96% 0.08 in 0 W/m2
06:44 55.4 °F 53.6 °F 29.3 in S 33.6 mph 26.7 mph 95% 0.07 in 0 W/m2
06:49 55.4 °F 53.6 °F 29.3 in S 29.2 mph 24.2 mph 94% 0.06 in 0 W/m2
06:54 55.4 °F 53.6 °F 29.3 in S 26.7 mph 24.9 mph 94% 0.06 in 0 W/m2
06:59 55.4 °F 53.6 °F 29.3 in S 29.2 mph 23 mph 94% 0.06 in 0 W/m2
07:04 55.4 °F 53.6 °F 29.3 in S 26.1 mph 24.2 mph 93% 0.06 in 0 W/m2
07:09 55.4 °F 53.6 °F 29.4 in S 28 mph 22.4 mph 94% 0.06 in 0 W/m2
07:14 55.4 °F 53.6 °F 29.3 in S 24.2 mph 19.9 mph 94% 0.06 in 0 W/m2
07:19 55.4 °F 53.6 °F 29.3 in S 26.1 mph 19.3 mph 95% 0.05 in 0 W/m2
07:24 55.4 °F 53.6 °F 29.3 in SSE 26.1 mph 23.6 mph 95% 0.05 in 0 W/m2
07:29 55.4 °F 53.6 °F 29.3 in S 26.1 mph 26.1 mph 94% 0.04 in 0 W/m2
07:34 55.4 °F 53.6 °F 29.3 in SSE 26.7 mph 21.7 mph 93% 0.03 in 0 W/m2
07:39 55.4 °F 53.6 °F 29.3 in SSE 26.1 mph 22.4 mph 93% 0.02 in 0 W/m2
07:44 55.4 °F 53.6 °F 29.3 in SSE 24.2 mph 19.9 mph 93% 0.02 in 0 W/m2
07:49 55.4 °F 53.6 °F 29.3 in SSE 24.9 mph 22.4 mph 93% 0.02 in 0 W/m2
07:54 55.4 °F 53.6 °F 29.3 in SSE 27.3 mph 23.6 mph 94% 0.02 in 0 W/m2
07:59 55.4 °F 53.6 °F 29.3 in SSE 23.6 mph 21.7 mph 94% 0.02 in 0 W/m2
08:04 55.4 °F 53.6 °F 29.3 in SSE 26.1 mph 22.4 mph 95% 0.03 in 0 W/m2
08:09 53.6 °F 53.6 °F 29.3 in SSE 24.2 mph 19.3 mph 95% 0.03 in 0 W/m2
08:14 53.6 °F 53.6 °F 29.3 in SSE 28 mph 23.6 mph 96% 0.04 in 0 W/m2
08:19 53.6 °F 53.6 °F 29.3 in SSE 31.1 mph 26.1 mph 96% 0.05 in 5 W/m2
08:24 53.6 °F 53.6 °F 29.3 in SSE 26.7 mph 22.4 mph 97% 0.05 in 5 W/m2
08:29 53.6 °F 53.6 °F 29.3 in SSE 29.2 mph 25.5 mph 97% 0.06 in 0 W/m2
08:34 53.6 °F 53.6 °F 29.3 in SSE 28.6 mph 24.2 mph 97% 0.06 in 5 W/m2
08:39 53.6 °F 53.6 °F 29.3 in SSE 30.4 mph 25.5 mph 97% 0.06 in 7 W/m2
08:44 53.6 °F 53.6 °F 29.3 in SSE 31.7 mph 27.3 mph 97% 0.06 in 7 W/m2
08:49 53.6 °F 53.6 °F 29.3 in SSE 26.1 mph 24.2 mph 97% 0.06 in 9 W/m2
08:54 53.6 °F 53.6 °F 29.3 in SSE 29.8 mph 27.3 mph 97% 0.06 in 9 W/m2
08:59 53.6 °F 53.6 °F 29.3 in SSE 28.6 mph 24.2 mph 97% 0.06 in 9 W/m2
09:04 53.6 °F 53.6 °F 29.3 in SSE 25.5 mph 23.6 mph 97% 0.05 in 7 W/m2
Compliments of Weather Underground - 2 mb